sensor_id;sensor_type;location;lat;lon;timestamp;temperature;humidity
46890;DHT22;32625;51.080;16.970;2023-08-12T00:00:22;15.10;99.90
46890;DHT22;32625;51.080;16.970;2023-08-12T00:02:49;15.10;99.90
46890;DHT22;32625;51.080;16.970;2023-08-12T00:05:16;15.10;99.90
46890;DHT22;32625;51.080;16.970;2023-08-12T00:07:43;15.00;99.90
46890;DHT22;32625;51.080;16.970;2023-08-12T00:10:11;15.10;99.90
46890;DHT22;32625;51.080;16.970;2023-08-12T00:12:39;15.10;99.90
46890;DHT22;32625;51.080;16.970;2023-08-12T00:15:07;15.00;99.90
46890;DHT22;32625;51.080;16.970;2023-08-12T00:17:35;15.00;99.90
46890;DHT22;32625;51.080;16.970;2023-08-12T00:20:09;14.90;99.90
46890;DHT22;32625;51.080;16.970;2023-08-12T00:22:38;14.90;99.90
46890;DHT22;32625;51.080;16.970;2023-08-12T00:25:06;14.90;99.90
46890;DHT22;32625;51.080;16.970;2023-08-12T00:27:34;14.80;99.90
46890;DHT22;32625;51.080;16.970;2023-08-12T00:30:01;14.80;99.90
46890;DHT22;32625;51.080;16.970;2023-08-12T00:32:28;14.80;99.90
46890;DHT22;32625;51.080;16.970;2023-08-12T00:34:56;14.80;99.90
46890;DHT22;32625;51.080;16.970;2023-08-12T00:37:23;14.80;99.90
46890;DHT22;32625;51.080;16.970;2023-08-12T00:39:51;14.80;99.90
46890;DHT22;32625;51.080;16.970;2023-08-12T00:42:18;14.70;99.90
46890;DHT22;32625;51.080;16.970;2023-08-12T00:44:45;14.70;99.90
46890;DHT22;32625;51.080;16.970;2023-08-12T00:47:13;14.70;99.90
46890;DHT22;32625;51.080;16.970;2023-08-12T00:49:41;14.60;99.90
46890;DHT22;32625;51.080;16.970;2023-08-12T00:52:15;14.70;99.90
46890;DHT22;32625;51.080;16.970;2023-08-12T00:54:43;14.70;99.90
46890;DHT22;32625;51.080;16.970;2023-08-12T00:57:10;14.60;99.90
46890;DHT22;32625;51.080;16.970;2023-08-12T00:59:39;14.50;99.90
46890;DHT22;32625;51.080;16.970;2023-08-12T01:02:08;14.60;99.90
46890;DHT22;32625;51.080;16.970;2023-08-12T01:04:35;14.60;99.90
46890;DHT22;32625;51.080;16.970;2023-08-12T01:07:02;14.70;99.90
46890;DHT22;32625;51.080;16.970;2023-08-12T01:09:30;14.60;99.90
46890;DHT22;32625;51.080;16.970;2023-08-12T01:12:13;14.60;99.90
46890;DHT22;32625;51.080;16.970;2023-08-12T01:17:20;14.60;99.90
46890;DHT22;32625;51.080;16.970;2023-08-12T01:19:47;14.10;99.90
46890;DHT22;32625;51.080;16.970;2023-08-12T01:22:21;14.60;99.90
46890;DHT22;32625;51.080;16.970;2023-08-12T01:24:51;14.60;99.90
46890;DHT22;32625;51.080;16.970;2023-08-12T01:27:18;14.60;99.90
46890;DHT22;32625;51.080;16.970;2023-08-12T01:29:49;14.60;99.90
46890;DHT22;32625;51.080;16.970;2023-08-12T01:34:57;14.60;99.90
46890;DHT22;32625;51.080;16.970;2023-08-12T01:37:27;14.50;99.90
46890;DHT22;32625;51.080;16.970;2023-08-12T01:39:56;14.60;99.90
46890;DHT22;32625;51.080;16.970;2023-08-12T01:42:27;14.60;99.90
46890;DHT22;32625;51.080;16.970;2023-08-12T01:44:54;14.70;99.90
46890;DHT22;32625;51.080;16.970;2023-08-12T01:47:22;14.60;99.90
46890;DHT22;32625;51.080;16.970;2023-08-12T01:49:48;14.60;99.90
46890;DHT22;32625;51.080;16.970;2023-08-12T01:52:15;14.60;99.90
46890;DHT22;32625;51.080;16.970;2023-08-12T01:54:42;14.60;99.90
46890;DHT22;32625;51.080;16.970;2023-08-12T01:57:09;14.20;99.90
46890;DHT22;32625;51.080;16.970;2023-08-12T01:59:38;14.50;99.90
46890;DHT22;32625;51.080;16.970;2023-08-12T02:02:05;14.50;99.90
46890;DHT22;32625;51.080;16.970;2023-08-12T02:04:32;14.50;99.90
46890;DHT22;32625;51.080;16.970;2023-08-12T02:06:59;14.50;99.90
46890;DHT22;32625;51.080;16.970;2023-08-12T02:09:26;14.50;99.90
46890;DHT22;32625;51.080;16.970;2023-08-12T02:11:53;14.50;99.90
46890;DHT22;32625;51.080;16.970;2023-08-12T02:14:20;14.50;99.90
46890;DHT22;32625;51.080;16.970;2023-08-12T02:16:47;14.50;99.90
46890;DHT22;32625;51.080;16.970;2023-08-12T02:19:14;14.50;99.90
46890;DHT22;32625;51.080;16.970;2023-08-12T02:21:42;14.60;99.90
46890;DHT22;32625;51.080;16.970;2023-08-12T02:24:09;14.50;99.90
46890;DHT22;32625;51.080;16.970;2023-08-12T02:26:37;14.60;99.90
46890;DHT22;32625;51.080;16.970;2023-08-12T02:29:04;14.50;99.90
46890;DHT22;32625;51.080;16.970;2023-08-12T02:31:32;14.60;99.90
46890;DHT22;32625;51.080;16.970;2023-08-12T02:33:59;14.40;99.90
46890;DHT22;32625;51.080;16.970;2023-08-12T02:36:26;14.40;99.90
46890;DHT22;32625;51.080;16.970;2023-08-12T02:38:54;14.40;99.90
46890;DHT22;32625;51.080;16.970;2023-08-12T02:41:21;14.40;99.90
46890;DHT22;32625;51.080;16.970;2023-08-12T02:43:48;14.40;99.90
46890;DHT22;32625;51.080;16.970;2023-08-12T02:46:15;14.40;99.90
46890;DHT22;32625;51.080;16.970;2023-08-12T02:48:42;14.50;99.90
46890;DHT22;32625;51.080;16.970;2023-08-12T02:51:09;14.40;99.90
46890;DHT22;32625;51.080;16.970;2023-08-12T02:53:37;14.40;99.90
46890;DHT22;32625;51.080;16.970;2023-08-12T02:56:04;14.40;99.90
46890;DHT22;32625;51.080;16.970;2023-08-12T02:58:31;14.40;99.90
46890;DHT22;32625;51.080;16.970;2023-08-12T03:00:58;14.40;99.90
46890;DHT22;32625;51.080;16.970;2023-08-12T03:03:25;14.40;99.90
46890;DHT22;32625;51.080;16.970;2023-08-12T03:05:52;14.40;99.90
46890;DHT22;32625;51.080;16.970;2023-08-12T03:08:19;14.50;99.90
46890;DHT22;32625;51.080;16.970;2023-08-12T03:10:47;14.40;99.90
46890;DHT22;32625;51.080;16.970;2023-08-12T03:13:16;14.40;99.90
46890;DHT22;32625;51.080;16.970;2023-08-12T03:15:43;14.40;99.90
46890;DHT22;32625;51.080;16.970;2023-08-12T03:18:10;14.40;99.90
46890;DHT22;32625;51.080;16.970;2023-08-12T03:20:38;14.40;99.90
46890;DHT22;32625;51.080;16.970;2023-08-12T03:23:05;14.40;99.90
46890;DHT22;32625;51.080;16.970;2023-08-12T03:25:32;14.40;99.90
46890;DHT22;32625;51.080;16.970;2023-08-12T03:27:59;14.40;99.90
46890;DHT22;32625;51.080;16.970;2023-08-12T03:30:27;14.40;99.90
46890;DHT22;32625;51.080;16.970;2023-08-12T03:32:56;14.30;99.90
46890;DHT22;32625;51.080;16.970;2023-08-12T03:35:26;14.40;99.90
46890;DHT22;32625;51.080;16.970;2023-08-12T03:37:52;14.30;99.90
46890;DHT22;32625;51.080;16.970;2023-08-12T03:40:21;14.30;99.90
46890;DHT22;32625;51.080;16.970;2023-08-12T03:42:48;14.30;99.90
46890;DHT22;32625;51.080;16.970;2023-08-12T03:45:18;14.20;99.90
46890;DHT22;32625;51.080;16.970;2023-08-12T03:47:46;14.20;99.90
46890;DHT22;32625;51.080;16.970;2023-08-12T03:50:13;14.20;99.90
46890;DHT22;32625;51.080;16.970;2023-08-12T03:52:40;14.30;99.90
46890;DHT22;32625;51.080;16.970;2023-08-12T03:55:07;14.30;99.90
46890;DHT22;32625;51.080;16.970;2023-08-12T03:57:34;14.30;99.90
46890;DHT22;32625;51.080;16.970;2023-08-12T04:00:02;14.30;99.90
46890;DHT22;32625;51.080;16.970;2023-08-12T04:02:40;14.30;99.90
46890;DHT22;32625;51.080;16.970;2023-08-12T04:05:07;14.30;99.90
46890;DHT22;32625;51.080;16.970;2023-08-12T04:07:36;14.30;99.90
46890;DHT22;32625;51.080;16.970;2023-08-12T04:10:03;14.30;99.90
46890;DHT22;32625;51.080;16.970;2023-08-12T04:12:30;14.30;99.90
46890;DHT22;32625;51.080;16.970;2023-08-12T04:14:57;14.40;99.90
46890;DHT22;32625;51.080;16.970;2023-08-12T04:17:24;14.40;99.90
46890;DHT22;32625;51.080;16.970;2023-08-12T04:19:51;14.40;99.90
46890;DHT22;32625;51.080;16.970;2023-08-12T04:22:18;14.40;99.90
46890;DHT22;32625;51.080;16.970;2023-08-12T04:24:45;14.30;99.90
46890;DHT22;32625;51.080;16.970;2023-08-12T04:27:12;14.50;99.90
46890;DHT22;32625;51.080;16.970;2023-08-12T04:29:40;14.40;99.90
46890;DHT22;32625;51.080;16.970;2023-08-12T04:32:06;14.60;99.90
46890;DHT22;32625;51.080;16.970;2023-08-12T04:34:34;14.60;99.90
46890;DHT22;32625;51.080;16.970;2023-08-12T04:37:02;14.60;99.90
46890;DHT22;32625;51.080;16.970;2023-08-12T04:39:30;14.70;99.90
46890;DHT22;32625;51.080;16.970;2023-08-12T04:41:59;14.70;99.90
46890;DHT22;32625;51.080;16.970;2023-08-12T04:44:26;14.70;99.90
46890;DHT22;32625;51.080;16.970;2023-08-12T04:46:54;14.80;99.90
46890;DHT22;32625;51.080;16.970;2023-08-12T04:49:21;14.90;99.90
46890;DHT22;32625;51.080;16.970;2023-08-12T04:51:52;14.90;99.90
46890;DHT22;32625;51.080;16.970;2023-08-12T04:54:20;14.80;99.90
46890;DHT22;32625;51.080;16.970;2023-08-12T04:56:48;14.90;99.90
46890;DHT22;32625;51.080;16.970;2023-08-12T04:59:15;15.00;99.90
46890;DHT22;32625;51.080;16.970;2023-08-12T05:01:42;15.00;99.90
46890;DHT22;32625;51.080;16.970;2023-08-12T05:04:30;15.00;99.90
46890;DHT22;32625;51.080;16.970;2023-08-12T05:06:57;15.10;99.90
46890;DHT22;32625;51.080;16.970;2023-08-12T05:09:25;15.10;99.90
46890;DHT22;32625;51.080;16.970;2023-08-12T05:11:51;15.20;99.90
46890;DHT22;32625;51.080;16.970;2023-08-12T05:14:18;15.20;99.90
46890;DHT22;32625;51.080;16.970;2023-08-12T05:16:46;15.30;99.90
46890;DHT22;32625;51.080;16.970;2023-08-12T05:19:13;15.30;99.90
46890;DHT22;32625;51.080;16.970;2023-08-12T05:21:40;15.30;99.90
46890;DHT22;32625;51.080;16.970;2023-08-12T05:24:07;15.40;99.90
46890;DHT22;32625;51.080;16.970;2023-08-12T05:26:34;15.40;99.90
46890;DHT22;32625;51.080;16.970;2023-08-12T05:29:01;15.50;99.90
46890;DHT22;32625;51.080;16.970;2023-08-12T05:31:29;15.50;99.90
46890;DHT22;32625;51.080;16.970;2023-08-12T05:33:56;15.60;99.90
46890;DHT22;32625;51.080;16.970;2023-08-12T05:36:23;15.70;99.90
46890;DHT22;32625;51.080;16.970;2023-08-12T05:38:50;15.70;99.90
46890;DHT22;32625;51.080;16.970;2023-08-12T05:41:17;15.70;99.90
46890;DHT22;32625;51.080;16.970;2023-08-12T05:43:43;15.80;99.90
46890;DHT22;32625;51.080;16.970;2023-08-12T05:46:10;15.80;99.90
46890;DHT22;32625;51.080;16.970;2023-08-12T05:48:38;15.90;99.90
46890;DHT22;32625;51.080;16.970;2023-08-12T05:51:04;16.00;99.90
46890;DHT22;32625;51.080;16.970;2023-08-12T05:53:32;16.10;99.90
46890;DHT22;32625;51.080;16.970;2023-08-12T05:55:59;16.20;99.90
46890;DHT22;32625;51.080;16.970;2023-08-12T05:58:26;16.20;99.90
46890;DHT22;32625;51.080;16.970;2023-08-12T06:00:53;16.30;99.90
46890;DHT22;32625;51.080;16.970;2023-08-12T06:03:20;16.40;99.90
46890;DHT22;32625;51.080;16.970;2023-08-12T06:05:48;16.50;99.90
46890;DHT22;32625;51.080;16.970;2023-08-12T06:08:15;16.60;99.90
46890;DHT22;32625;51.080;16.970;2023-08-12T06:10:42;16.70;99.90
46890;DHT22;32625;51.080;16.970;2023-08-12T06:13:09;16.70;99.90
46890;DHT22;32625;51.080;16.970;2023-08-12T06:15:36;16.70;99.90
46890;DHT22;32625;51.080;16.970;2023-08-12T06:18:03;16.90;99.90
46890;DHT22;32625;51.080;16.970;2023-08-12T06:20:30;17.00;99.90
46890;DHT22;32625;51.080;16.970;2023-08-12T06:22:58;17.00;99.90
46890;DHT22;32625;51.080;16.970;2023-08-12T06:25:25;17.10;99.90
46890;DHT22;32625;51.080;16.970;2023-08-12T06:27:52;17.20;99.90
46890;DHT22;32625;51.080;16.970;2023-08-12T06:30:19;17.20;99.90
46890;DHT22;32625;51.080;16.970;2023-08-12T06:32:46;17.30;99.90
46890;DHT22;32625;51.080;16.970;2023-08-12T06:35:13;17.40;99.90
46890;DHT22;32625;51.080;16.970;2023-08-12T06:37:40;17.60;99.90
46890;DHT22;32625;51.080;16.970;2023-08-12T06:40:07;17.60;99.90
46890;DHT22;32625;51.080;16.970;2023-08-12T06:42:34;17.70;99.90
46890;DHT22;32625;51.080;16.970;2023-08-12T06:45:02;17.90;99.90
46890;DHT22;32625;51.080;16.970;2023-08-12T06:47:31;18.00;99.90
46890;DHT22;32625;51.080;16.970;2023-08-12T06:49:58;18.30;99.90
46890;DHT22;32625;51.080;16.970;2023-08-12T06:52:25;18.40;99.90
46890;DHT22;32625;51.080;16.970;2023-08-12T06:54:52;18.60;99.90
46890;DHT22;32625;51.080;16.970;2023-08-12T06:57:19;18.60;99.90
46890;DHT22;32625;51.080;16.970;2023-08-12T06:59:46;18.80;99.90
46890;DHT22;32625;51.080;16.970;2023-08-12T07:02:13;18.80;99.90
46890;DHT22;32625;51.080;16.970;2023-08-12T07:04:40;18.80;99.90
46890;DHT22;32625;51.080;16.970;2023-08-12T07:07:07;18.90;99.90
46890;DHT22;32625;51.080;16.970;2023-08-12T07:09:34;19.00;99.90
46890;DHT22;32625;51.080;16.970;2023-08-12T07:12:01;19.10;99.90
46890;DHT22;32625;51.080;16.970;2023-08-12T07:14:28;19.00;99.90
46890;DHT22;32625;51.080;16.970;2023-08-12T07:16:55;19.00;99.90
46890;DHT22;32625;51.080;16.970;2023-08-12T07:19:23;19.10;99.90
46890;DHT22;32625;51.080;16.970;2023-08-12T07:21:49;19.10;99.90
46890;DHT22;32625;51.080;16.970;2023-08-12T07:24:17;19.10;99.90
46890;DHT22;32625;51.080;16.970;2023-08-12T07:26:44;19.10;99.90
46890;DHT22;32625;51.080;16.970;2023-08-12T07:29:11;19.10;99.90
46890;DHT22;32625;51.080;16.970;2023-08-12T07:31:38;19.10;99.90
46890;DHT22;32625;51.080;16.970;2023-08-12T07:34:05;19.30;99.90
46890;DHT22;32625;51.080;16.970;2023-08-12T07:36:32;19.50;99.90
46890;DHT22;32625;51.080;16.970;2023-08-12T07:39:00;19.40;99.90
46890;DHT22;32625;51.080;16.970;2023-08-12T07:41:26;19.50;99.90
46890;DHT22;32625;51.080;16.970;2023-08-12T07:43:54;19.70;99.90
46890;DHT22;32625;51.080;16.970;2023-08-12T07:46:21;19.80;99.90
46890;DHT22;32625;51.080;16.970;2023-08-12T07:48:48;19.80;99.90
46890;DHT22;32625;51.080;16.970;2023-08-12T07:51:15;19.90;99.90
46890;DHT22;32625;51.080;16.970;2023-08-12T07:53:42;19.90;99.90
46890;DHT22;32625;51.080;16.970;2023-08-12T07:56:09;19.90;99.90
46890;DHT22;32625;51.080;16.970;2023-08-12T07:58:37;20.00;99.90
46890;DHT22;32625;51.080;16.970;2023-08-12T08:01:04;20.20;99.90
46890;DHT22;32625;51.080;16.970;2023-08-12T08:03:31;20.20;99.90
46890;DHT22;32625;51.080;16.970;2023-08-12T08:05:58;20.30;99.90
46890;DHT22;32625;51.080;16.970;2023-08-12T08:08:25;20.50;99.90
46890;DHT22;32625;51.080;16.970;2023-08-12T08:10:52;20.60;99.90
46890;DHT22;32625;51.080;16.970;2023-08-12T08:13:19;20.70;99.90
46890;DHT22;32625;51.080;16.970;2023-08-12T08:15:47;20.90;99.90
46890;DHT22;32625;51.080;16.970;2023-08-12T08:18:14;20.90;99.90
46890;DHT22;32625;51.080;16.970;2023-08-12T08:20:42;21.20;99.90
46890;DHT22;32625;51.080;16.970;2023-08-12T08:23:11;21.30;99.90
46890;DHT22;32625;51.080;16.970;2023-08-12T08:25:38;21.50;99.90
46890;DHT22;32625;51.080;16.970;2023-08-12T08:28:05;21.60;99.90
46890;DHT22;32625;51.080;16.970;2023-08-12T08:30:32;21.50;99.90
46890;DHT22;32625;51.080;16.970;2023-08-12T08:33:00;21.60;99.90
46890;DHT22;32625;51.080;16.970;2023-08-12T08:35:27;21.50;99.90
46890;DHT22;32625;51.080;16.970;2023-08-12T08:37:54;21.60;99.90
46890;DHT22;32625;51.080;16.970;2023-08-12T08:40:21;21.60;99.90
46890;DHT22;32625;51.080;16.970;2023-08-12T08:42:51;21.70;99.90
46890;DHT22;32625;51.080;16.970;2023-08-12T08:45:22;21.80;99.90
46890;DHT22;32625;51.080;16.970;2023-08-12T08:47:51;21.90;99.90
46890;DHT22;32625;51.080;16.970;2023-08-12T08:50:20;21.90;99.90
46890;DHT22;32625;51.080;16.970;2023-08-12T08:52:47;21.90;99.90
46890;DHT22;32625;51.080;16.970;2023-08-12T08:55:15;22.10;99.90
46890;DHT22;32625;51.080;16.970;2023-08-12T08:57:45;22.20;99.90
46890;DHT22;32625;51.080;16.970;2023-08-12T09:00:15;22.30;99.90
46890;DHT22;32625;51.080;16.970;2023-08-12T09:02:47;22.50;99.90
46890;DHT22;32625;51.080;16.970;2023-08-12T09:05:18;22.40;99.90
46890;DHT22;32625;51.080;16.970;2023-08-12T09:07:48;22.70;99.90
46890;DHT22;32625;51.080;16.970;2023-08-12T09:10:17;22.90;99.90
46890;DHT22;32625;51.080;16.970;2023-08-12T09:12:47;22.90;99.70
46890;DHT22;32625;51.080;16.970;2023-08-12T09:15:16;23.00;98.50
46890;DHT22;32625;51.080;16.970;2023-08-12T09:17:43;23.00;98.50
46890;DHT22;32625;51.080;16.970;2023-08-12T09:20:10;23.00;99.60
46890;DHT22;32625;51.080;16.970;2023-08-12T09:22:42;23.00;99.40
46890;DHT22;32625;51.080;16.970;2023-08-12T09:25:10;23.40;96.90
46890;DHT22;32625;51.080;16.970;2023-08-12T09:27:37;23.50;96.70
46890;DHT22;32625;51.080;16.970;2023-08-12T09:30:05;23.40;95.60
46890;DHT22;32625;51.080;16.970;2023-08-12T09:32:33;23.50;96.40
46890;DHT22;32625;51.080;16.970;2023-08-12T09:35:01;23.30;97.00
46890;DHT22;32625;51.080;16.970;2023-08-12T09:37:33;23.30;97.20
46890;DHT22;32625;51.080;16.970;2023-08-12T09:40:00;23.50;96.60
46890;DHT22;32625;51.080;16.970;2023-08-12T09:42:28;23.70;95.50
46890;DHT22;32625;51.080;16.970;2023-08-12T09:44:56;23.70;95.10
46890;DHT22;32625;51.080;16.970;2023-08-12T09:47:25;23.70;95.80
46890;DHT22;32625;51.080;16.970;2023-08-12T09:49:52;23.70;95.90
46890;DHT22;32625;51.080;16.970;2023-08-12T09:52:19;23.80;95.50
46890;DHT22;32625;51.080;16.970;2023-08-12T09:54:46;23.80;94.60
46890;DHT22;32625;51.080;16.970;2023-08-12T09:57:14;23.90;95.00
46890;DHT22;32625;51.080;16.970;2023-08-12T09:59:45;23.80;95.40
46890;DHT22;32625;51.080;16.970;2023-08-12T10:02:15;23.80;95.10
46890;DHT22;32625;51.080;16.970;2023-08-12T10:04:46;23.90;93.80
46890;DHT22;32625;51.080;16.970;2023-08-12T10:07:14;24.00;94.40
46890;DHT22;32625;51.080;16.970;2023-08-12T10:09:42;24.20;93.40
46890;DHT22;32625;51.080;16.970;2023-08-12T10:12:11;24.10;94.10
46890;DHT22;32625;51.080;16.970;2023-08-12T10:14:44;24.20;93.80
46890;DHT22;32625;51.080;16.970;2023-08-12T10:17:12;24.10;95.10
46890;DHT22;32625;51.080;16.970;2023-08-12T10:19:44;24.30;93.70
46890;DHT22;32625;51.080;16.970;2023-08-12T10:22:11;24.40;94.10
46890;DHT22;32625;51.080;16.970;2023-08-12T10:24:39;24.40;93.50
46890;DHT22;32625;51.080;16.970;2023-08-12T10:27:08;24.40;93.30
46890;DHT22;32625;51.080;16.970;2023-08-12T10:29:36;24.50;92.20
46890;DHT22;32625;51.080;16.970;2023-08-12T10:32:03;24.20;91.50
46890;DHT22;32625;51.080;16.970;2023-08-12T10:34:30;23.80;93.80
46890;DHT22;32625;51.080;16.970;2023-08-12T10:37:01;23.80;92.80
46890;DHT22;32625;51.080;16.970;2023-08-12T10:39:33;23.70;92.80
46890;DHT22;32625;51.080;16.970;2023-08-12T10:42:00;24.00;92.40
46890;DHT22;32625;51.080;16.970;2023-08-12T10:44:39;23.70;92.30
46890;DHT22;32625;51.080;16.970;2023-08-12T10:47:09;23.80;93.50
46890;DHT22;32625;51.080;16.970;2023-08-12T10:49:47;23.90;93.30
46890;DHT22;32625;51.080;16.970;2023-08-12T10:52:31;23.80;94.10
46890;DHT22;32625;51.080;16.970;2023-08-12T10:57:44;23.70;93.50
46890;DHT22;32625;51.080;16.970;2023-08-12T11:00:25;23.40;94.70
46890;DHT22;32625;51.080;16.970;2023-08-12T11:02:54;23.40;94.60
46890;DHT22;32625;51.080;16.970;2023-08-12T11:05:23;23.30;95.20
46890;DHT22;32625;51.080;16.970;2023-08-12T11:08:00;23.50;94.90
46890;DHT22;32625;51.080;16.970;2023-08-12T11:10:33;24.00;94.10
46890;DHT22;32625;51.080;16.970;2023-08-12T11:13:01;24.00;93.10
46890;DHT22;32625;51.080;16.970;2023-08-12T11:15:33;24.00;93.10
46890;DHT22;32625;51.080;16.970;2023-08-12T11:18:10;23.90;94.00
46890;DHT22;32625;51.080;16.970;2023-08-12T11:20:39;24.10;93.30
46890;DHT22;32625;51.080;16.970;2023-08-12T11:23:07;24.30;93.30
46890;DHT22;32625;51.080;16.970;2023-08-12T11:25:36;24.30;92.20
46890;DHT22;32625;51.080;16.970;2023-08-12T11:28:05;24.20;92.60
46890;DHT22;32625;51.080;16.970;2023-08-12T11:30:32;24.50;92.20
46890;DHT22;32625;51.080;16.970;2023-08-12T11:33:00;24.70;90.80
46890;DHT22;32625;51.080;16.970;2023-08-12T11:35:28;24.20;92.70
46890;DHT22;32625;51.080;16.970;2023-08-12T11:37:57;24.40;92.90
46890;DHT22;32625;51.080;16.970;2023-08-12T11:40:26;24.60;92.00
46890;DHT22;32625;51.080;16.970;2023-08-12T11:42:54;24.60;92.00
46890;DHT22;32625;51.080;16.970;2023-08-12T11:45:23;24.80;90.80
46890;DHT22;32625;51.080;16.970;2023-08-12T11:47:51;24.40;91.80
46890;DHT22;32625;51.080;16.970;2023-08-12T11:50:24;24.30;92.00
46890;DHT22;32625;51.080;16.970;2023-08-12T11:52:56;24.30;92.60
46890;DHT22;32625;51.080;16.970;2023-08-12T11:55:23;24.70;91.90
46890;DHT22;32625;51.080;16.970;2023-08-12T11:57:51;24.80;91.40
46890;DHT22;32625;51.080;16.970;2023-08-12T12:00:19;24.50;91.00
46890;DHT22;32625;51.080;16.970;2023-08-12T12:02:52;24.10;92.20
46890;DHT22;32625;51.080;16.970;2023-08-12T12:05:38;24.00;92.90
46890;DHT22;32625;51.080;16.970;2023-08-12T12:08:05;24.40;93.00
46890;DHT22;32625;51.080;16.970;2023-08-12T12:10:35;24.20;91.90
46890;DHT22;32625;51.080;16.970;2023-08-12T12:13:04;24.40;91.90
46890;DHT22;32625;51.080;16.970;2023-08-12T12:15:37;24.50;91.20
46890;DHT22;32625;51.080;16.970;2023-08-12T12:18:10;24.50;91.90
46890;DHT22;32625;51.080;16.970;2023-08-12T12:20:42;24.80;90.50
46890;DHT22;32625;51.080;16.970;2023-08-12T12:23:09;24.40;90.90
46890;DHT22;32625;51.080;16.970;2023-08-12T12:25:36;24.10;92.00
46890;DHT22;32625;51.080;16.970;2023-08-12T12:28:03;24.00;92.50
46890;DHT22;32625;51.080;16.970;2023-08-12T12:30:30;24.10;92.60
46890;DHT22;32625;51.080;16.970;2023-08-12T12:32:57;24.20;92.30
46890;DHT22;32625;51.080;16.970;2023-08-12T12:35:24;24.40;90.90
46890;DHT22;32625;51.080;16.970;2023-08-12T12:37:51;24.40;92.20
46890;DHT22;32625;51.080;16.970;2023-08-12T12:40:18;25.00;92.00
46890;DHT22;32625;51.080;16.970;2023-08-12T12:42:46;25.30;89.10
46890;DHT22;32625;51.080;16.970;2023-08-12T12:45:12;25.40;88.40
46890;DHT22;32625;51.080;16.970;2023-08-12T12:47:39;25.50;88.00
46890;DHT22;32625;51.080;16.970;2023-08-12T12:50:07;25.70;86.80
46890;DHT22;32625;51.080;16.970;2023-08-12T12:52:34;25.80;87.70
46890;DHT22;32625;51.080;16.970;2023-08-12T12:55:01;26.00;85.30
46890;DHT22;32625;51.080;16.970;2023-08-12T12:57:30;26.00;83.00
46890;DHT22;32625;51.080;16.970;2023-08-12T12:59:57;25.40;86.70
46890;DHT22;32625;51.080;16.970;2023-08-12T13:02:24;24.90;88.90
46890;DHT22;32625;51.080;16.970;2023-08-12T13:04:51;24.50;90.50
46890;DHT22;32625;51.080;16.970;2023-08-12T13:07:18;24.30;91.00
46890;DHT22;32625;51.080;16.970;2023-08-12T13:09:45;24.20;91.30
46890;DHT22;32625;51.080;16.970;2023-08-12T13:12:12;24.00;91.60
46890;DHT22;32625;51.080;16.970;2023-08-12T13:14:39;23.90;91.90
46890;DHT22;32625;51.080;16.970;2023-08-12T13:17:06;23.80;92.40
46890;DHT22;32625;51.080;16.970;2023-08-12T13:19:34;23.70;92.80
46890;DHT22;32625;51.080;16.970;2023-08-12T13:22:01;23.60;93.20
46890;DHT22;32625;51.080;16.970;2023-08-12T13:24:29;23.80;93.20
46890;DHT22;32625;51.080;16.970;2023-08-12T13:26:57;24.00;91.80
46890;DHT22;32625;51.080;16.970;2023-08-12T13:29:26;24.10;92.40
46890;DHT22;32625;51.080;16.970;2023-08-12T13:31:53;24.20;91.30
46890;DHT22;32625;51.080;16.970;2023-08-12T13:34:20;24.00;91.90
46890;DHT22;32625;51.080;16.970;2023-08-12T13:36:47;24.00;92.10
46890;DHT22;32625;51.080;16.970;2023-08-12T13:39:14;24.20;91.70
46890;DHT22;32625;51.080;16.970;2023-08-12T13:41:41;24.40;91.70
46890;DHT22;32625;51.080;16.970;2023-08-12T13:44:10;24.40;91.70
46890;DHT22;32625;51.080;16.970;2023-08-12T13:46:37;24.60;90.70
46890;DHT22;32625;51.080;16.970;2023-08-12T13:49:04;24.40;90.90
46890;DHT22;32625;51.080;16.970;2023-08-12T13:51:31;24.40;91.50
46890;DHT22;32625;51.080;16.970;2023-08-12T13:53:58;24.40;91.00
46890;DHT22;32625;51.080;16.970;2023-08-12T13:56:25;24.40;90.90
46890;DHT22;32625;51.080;16.970;2023-08-12T13:58:52;24.40;91.10
46890;DHT22;32625;51.080;16.970;2023-08-12T14:01:18;24.50;91.10
46890;DHT22;32625;51.080;16.970;2023-08-12T14:03:45;24.70;90.30
46890;DHT22;32625;51.080;16.970;2023-08-12T14:06:12;24.60;90.20
46890;DHT22;32625;51.080;16.970;2023-08-12T14:08:39;24.90;91.70
46890;DHT22;32625;51.080;16.970;2023-08-12T14:11:06;25.50;90.60
46890;DHT22;32625;51.080;16.970;2023-08-12T14:13:33;26.00;86.10
46890;DHT22;32625;51.080;16.970;2023-08-12T14:16:00;26.40;83.60
46890;DHT22;32625;51.080;16.970;2023-08-12T14:18:27;26.80;84.00
46890;DHT22;32625;51.080;16.970;2023-08-12T14:20:54;27.10;82.10
46890;DHT22;32625;51.080;16.970;2023-08-12T14:23:21;27.30;84.30
46890;DHT22;32625;51.080;16.970;2023-08-12T14:25:47;27.50;84.70
46890;DHT22;32625;51.080;16.970;2023-08-12T14:28:14;27.30;88.20
46890;DHT22;32625;51.080;16.970;2023-08-12T14:30:41;27.10;89.70
46890;DHT22;32625;51.080;16.970;2023-08-12T14:33:08;26.90;85.40
46890;DHT22;32625;51.080;16.970;2023-08-12T14:35:35;26.80;80.80
46890;DHT22;32625;51.080;16.970;2023-08-12T14:38:02;26.70;85.30
46890;DHT22;32625;51.080;16.970;2023-08-12T14:40:30;26.40;90.30
46890;DHT22;32625;51.080;16.970;2023-08-12T14:42:57;26.20;90.60
46890;DHT22;32625;51.080;16.970;2023-08-12T14:45:24;26.00;90.00
46890;DHT22;32625;51.080;16.970;2023-08-12T14:47:51;25.90;88.90
46890;DHT22;32625;51.080;16.970;2023-08-12T14:50:18;26.20;83.30
46890;DHT22;32625;51.080;16.970;2023-08-12T14:52:45;26.10;87.10
46890;DHT22;32625;51.080;16.970;2023-08-12T14:55:12;25.90;90.90
46890;DHT22;32625;51.080;16.970;2023-08-12T14:57:39;25.80;90.80
46890;DHT22;32625;51.080;16.970;2023-08-12T15:00:07;25.80;90.20
46890;DHT22;32625;51.080;16.970;2023-08-12T15:02:35;25.80;90.30
46890;DHT22;32625;51.080;16.970;2023-08-12T15:05:03;25.70;91.20
46890;DHT22;32625;51.080;16.970;2023-08-12T15:07:30;25.60;91.90
46890;DHT22;32625;51.080;16.970;2023-08-12T15:09:57;25.50;90.80
46890;DHT22;32625;51.080;16.970;2023-08-12T15:12:25;25.70;88.30
46890;DHT22;32625;51.080;16.970;2023-08-12T15:14:54;25.90;85.30
46890;DHT22;32625;51.080;16.970;2023-08-12T15:17:21;25.70;87.30
46890;DHT22;32625;51.080;16.970;2023-08-12T15:19:48;25.20;86.30
46890;DHT22;32625;51.080;16.970;2023-08-12T15:22:15;24.80;87.90
46890;DHT22;32625;51.080;16.970;2023-08-12T15:24:42;24.50;89.20
46890;DHT22;32625;51.080;16.970;2023-08-12T15:27:09;24.40;89.60